sensor_id;sensor_type;location;lat;lon;timestamp;P1;durP1;ratioP1;P2;durP2;ratioP2
18689;SDS011;9782;52.930;15.562;2022-07-29T00:01:33;677.87;;;334.03;;
18689;SDS011;9782;52.930;15.562;2022-07-29T00:04:00;645.47;;;262.53;;
18689;SDS011;9782;52.930;15.562;2022-07-29T00:06:27;647.60;;;290.37;;
18689;SDS011;9782;52.930;15.562;2022-07-29T00:08:56;642.17;;;287.40;;
18689;SDS011;9782;52.930;15.562;2022-07-29T00:11:23;670.03;;;326.93;;
18689;SDS011;9782;52.930;15.562;2022-07-29T00:13:50;672.50;;;327.67;;
18689;SDS011;9782;52.930;15.562;2022-07-29T00:16:17;480.03;;;226.03;;
18689;SDS011;9782;52.930;15.562;2022-07-29T00:18:44;637.73;;;266.33;;
18689;SDS011;9782;52.930;15.562;2022-07-29T00:21:11;680.43;;;340.07;;
18689;SDS011;9782;52.930;15.562;2022-07-29T00:23:38;488.80;;;235.13;;
18689;SDS011;9782;52.930;15.562;2022-07-29T00:26:06;662.27;;;320.77;;
18689;SDS011;9782;52.930;15.562;2022-07-29T00:28:34;659.33;;;297.93;;
18689;SDS011;9782;52.930;15.562;2022-07-29T00:31:01;655.57;;;272.97;;
18689;SDS011;9782;52.930;15.562;2022-07-29T00:33:28;673.53;;;315.70;;
18689;SDS011;9782;52.930;15.562;2022-07-29T00:35:55;674.53;;;342.00;;
18689;SDS011;9782;52.930;15.562;2022-07-29T00:38:24;678.83;;;303.43;;
18689;SDS011;9782;52.930;15.562;2022-07-29T00:41:10;658.43;;;284.20;;
18689;SDS011;9782;52.930;15.562;2022-07-29T00:43:37;645.17;;;285.30;;
18689;SDS011;9782;52.930;15.562;2022-07-29T00:46:05;676.20;;;290.97;;
18689;SDS011;9782;52.930;15.562;2022-07-29T00:48:33;663.93;;;256.80;;
18689;SDS011;9782;52.930;15.562;2022-07-29T00:51:01;488.13;;;211.73;;
18689;SDS011;9782;52.930;15.562;2022-07-29T00:53:29;670.50;;;334.97;;
18689;SDS011;9782;52.930;15.562;2022-07-29T00:55:57;668.80;;;272.80;;
18689;SDS011;9782;52.930;15.562;2022-07-29T00:58:25;678.67;;;300.40;;
18689;SDS011;9782;52.930;15.562;2022-07-29T01:00:53;670.97;;;267.87;;
18689;SDS011;9782;52.930;15.562;2022-07-29T01:03:20;662.17;;;293.40;;
18689;SDS011;9782;52.930;15.562;2022-07-29T01:05:47;490.10;;;223.33;;
18689;SDS011;9782;52.930;15.562;2022-07-29T01:08:14;673.13;;;308.53;;
18689;SDS011;9782;52.930;15.562;2022-07-29T01:10:42;650.60;;;269.80;;
18689;SDS011;9782;52.930;15.562;2022-07-29T01:13:10;668.87;;;314.10;;
18689;SDS011;9782;52.930;15.562;2022-07-29T01:15:40;660.40;;;218.10;;
18689;SDS011;9782;52.930;15.562;2022-07-29T01:18:11;654.00;;;312.60;;
18689;SDS011;9782;52.930;15.562;2022-07-29T01:20:48;656.60;;;184.37;;
18689;SDS011;9782;52.930;15.562;2022-07-29T01:26:41;647.33;;;146.37;;
18689;SDS011;9782;52.930;15.562;2022-07-29T01:29:14;643.87;;;169.37;;
18689;SDS011;9782;52.930;15.562;2022-07-29T01:31:51;648.03;;;187.50;;
18689;SDS011;9782;52.930;15.562;2022-07-29T01:34:23;650.67;;;203.20;;
18689;SDS011;9782;52.930;15.562;2022-07-29T01:36:57;663.60;;;236.33;;
18689;SDS011;9782;52.930;15.562;2022-07-29T01:39:30;650.00;;;159.17;;
18689;SDS011;9782;52.930;15.562;2022-07-29T01:42:01;654.10;;;208.53;;
18689;SDS011;9782;52.930;15.562;2022-07-29T01:44:35;661.20;;;235.97;;
18689;SDS011;9782;52.930;15.562;2022-07-29T01:47:10;655.10;;;188.57;;
18689;SDS011;9782;52.930;15.562;2022-07-29T01:49:42;649.03;;;154.97;;
18689;SDS011;9782;52.930;15.562;2022-07-29T01:52:16;638.00;;;150.57;;
18689;SDS011;9782;52.930;15.562;2022-07-29T01:54:49;643.27;;;149.50;;
18689;SDS011;9782;52.930;15.562;2022-07-29T01:57:25;640.93;;;151.50;;
18689;SDS011;9782;52.930;15.562;2022-07-29T01:59:55;648.03;;;157.03;;
18689;SDS011;9782;52.930;15.562;2022-07-29T02:02:24;469.03;;;106.93;;
18689;SDS011;9782;52.930;15.562;2022-07-29T02:04:53;645.90;;;148.20;;
18689;SDS011;9782;52.930;15.562;2022-07-29T02:07:22;644.27;;;147.70;;
18689;SDS011;9782;52.930;15.562;2022-07-29T02:09:51;651.97;;;181.77;;
18689;SDS011;9782;52.930;15.562;2022-07-29T02:12:20;644.07;;;161.67;;
18689;SDS011;9782;52.930;15.562;2022-07-29T02:14:48;647.47;;;174.43;;
18689;SDS011;9782;52.930;15.562;2022-07-29T02:17:21;643.63;;;160.73;;
18689;SDS011;9782;52.930;15.562;2022-07-29T02:19:51;646.90;;;156.53;;
18689;SDS011;9782;52.930;15.562;2022-07-29T02:22:20;648.47;;;201.73;;
18689;SDS011;9782;52.930;15.562;2022-07-29T02:24:49;642.00;;;157.87;;
18689;SDS011;9782;52.930;15.562;2022-07-29T02:27:17;647.90;;;206.27;;
18689;SDS011;9782;52.930;15.562;2022-07-29T02:29:46;656.93;;;189.23;;
18689;SDS011;9782;52.930;15.562;2022-07-29T02:32:15;466.37;;;113.07;;
18689;SDS011;9782;52.930;15.562;2022-07-29T02:34:44;645.10;;;145.40;;
18689;SDS011;9782;52.930;15.562;2022-07-29T02:37:13;625.10;;;157.77;;
18689;SDS011;9782;52.930;15.562;2022-07-29T02:39:43;608.30;;;173.87;;
18689;SDS011;9782;52.930;15.562;2022-07-29T02:42:12;417.70;;;171.70;;
18689;SDS011;9782;52.930;15.562;2022-07-29T02:44:41;565.87;;;227.37;;
18689;SDS011;9782;52.930;15.562;2022-07-29T02:47:10;561.57;;;233.67;;
18689;SDS011;9782;52.930;15.562;2022-07-29T02:49:43;29.33;;;26.77;;
18689;SDS011;9782;52.930;15.562;2022-07-29T02:52:19;28.40;;;24.60;;
18689;SDS011;9782;52.930;15.562;2022-07-29T02:54:53;26.43;;;23.97;;
18689;SDS011;9782;52.930;15.562;2022-07-29T02:57:39;25.87;;;23.57;;
18689;SDS011;9782;52.930;15.562;2022-07-29T03:00:09;26.83;;;24.43;;
18689;SDS011;9782;52.930;15.562;2022-07-29T03:02:38;27.23;;;24.87;;
18689;SDS011;9782;52.930;15.562;2022-07-29T03:05:09;26.73;;;24.33;;
18689;SDS011;9782;52.930;15.562;2022-07-29T03:07:41;28.93;;;26.10;;
18689;SDS011;9782;52.930;15.562;2022-07-29T03:10:11;29.10;;;26.43;;
18689;SDS011;9782;52.930;15.562;2022-07-29T03:12:39;28.10;;;25.60;;
18689;SDS011;9782;52.930;15.562;2022-07-29T03:15:07;27.30;;;24.93;;
18689;SDS011;9782;52.930;15.562;2022-07-29T03:17:35;29.13;;;26.57;;
18689;SDS011;9782;52.930;15.562;2022-07-29T03:20:11;28.43;;;25.90;;
18689;SDS011;9782;52.930;15.562;2022-07-29T03:22:41;27.90;;;25.53;;
18689;SDS011;9782;52.930;15.562;2022-07-29T03:25:13;28.10;;;25.57;;
18689;SDS011;9782;52.930;15.562;2022-07-29T03:27:48;26.93;;;24.43;;
18689;SDS011;9782;52.930;15.562;2022-07-29T03:30:21;28.47;;;25.80;;
18689;SDS011;9782;52.930;15.562;2022-07-29T03:32:58;29.30;;;26.53;;
18689;SDS011;9782;52.930;15.562;2022-07-29T03:35:42;27.23;;;24.77;;
18689;SDS011;9782;52.930;15.562;2022-07-29T03:38:24;26.63;;;24.00;;
18689;SDS011;9782;52.930;15.562;2022-07-29T03:41:11;24.93;;;22.57;;
18689;SDS011;9782;52.930;15.562;2022-07-29T03:44:15;28.70;;;25.67;;
18689;SDS011;9782;52.930;15.562;2022-07-29T03:47:20;28.57;;;26.10;;
18689;SDS011;9782;52.930;15.562;2022-07-29T03:50:00;29.40;;;26.83;;
18689;SDS011;9782;52.930;15.562;2022-07-29T03:53:29;28.10;;;25.50;;
18689;SDS011;9782;52.930;15.562;2022-07-29T03:56:27;26.40;;;24.03;;
18689;SDS011;9782;52.930;15.562;2022-07-29T03:59:14;28.67;;;26.20;;
18689;SDS011;9782;52.930;15.562;2022-07-29T04:07:39;28.70;;;26.10;;
18689;SDS011;9782;52.930;15.562;2022-07-29T04:10:16;27.80;;;25.33;;
18689;SDS011;9782;52.930;15.562;2022-07-29T04:12:44;25.20;;;22.27;;
18689;SDS011;9782;52.930;15.562;2022-07-29T04:15:52;27.20;;;24.73;;
18689;SDS011;9782;52.930;15.562;2022-07-29T04:21:30;27.93;;;25.40;;
18689;SDS011;9782;52.930;15.562;2022-07-29T04:24:23;29.13;;;26.43;;
18689;SDS011;9782;52.930;15.562;2022-07-29T04:27:20;30.23;;;27.47;;
18689;SDS011;9782;52.930;15.562;2022-07-29T04:30:20;31.67;;;28.97;;
18689;SDS011;9782;52.930;15.562;2022-07-29T04:33:04;31.37;;;28.67;;
18689;SDS011;9782;52.930;15.562;2022-07-29T04:35:55;31.53;;;28.80;;
18689;SDS011;9782;52.930;15.562;2022-07-29T04:38:54;29.20;;;26.63;;
18689;SDS011;9782;52.930;15.562;2022-07-29T04:41:33;28.20;;;25.67;;
18689;SDS011;9782;52.930;15.562;2022-07-29T04:44:18;29.50;;;26.83;;
18689;SDS011;9782;52.930;15.562;2022-07-29T04:47:03;24.10;;;21.80;;
18689;SDS011;9782;52.930;15.562;2022-07-29T04:50:14;23.67;;;21.40;;
18689;SDS011;9782;52.930;15.562;2022-07-29T04:56:11;23.45;;;21.20;;
18689;SDS011;9782;52.930;15.562;2022-07-29T04:59:12;511.70;;;270.97;;
18689;SDS011;9782;52.930;15.562;2022-07-29T05:01:55;728.70;;;444.10;;
18689;SDS011;9782;52.930;15.562;2022-07-29T05:04:28;743.90;;;492.97;;
18689;SDS011;9782;52.930;15.562;2022-07-29T05:07:29;742.85;;;503.60;;
18689;SDS011;9782;52.930;15.562;2022-07-29T05:10:13;751.15;;;547.83;;
18689;SDS011;9782;52.930;15.562;2022-07-29T05:12:47;760.72;;;573.75;;
18689;SDS011;9782;52.930;15.562;2022-07-29T05:15:25;771.65;;;603.83;;
18689;SDS011;9782;52.930;15.562;2022-07-29T05:18:00;777.20;;;631.35;;
18689;SDS011;9782;52.930;15.562;2022-07-29T05:20:44;785.25;;;654.55;;
18689;SDS011;9782;52.930;15.562;2022-07-29T05:25:49;782.22;;;680.25;;
18689;SDS011;9782;52.930;15.562;2022-07-29T05:31:57;774.40;;;677.85;;
18689;SDS011;9782;52.930;15.562;2022-07-29T05:38:20;757.78;;;668.90;;
18689;SDS011;9782;52.930;15.562;2022-07-29T05:41:19;755.47;;;660.67;;
18689;SDS011;9782;52.930;15.562;2022-07-29T05:44:00;763.88;;;679.95;;
18689;SDS011;9782;52.930;15.562;2022-07-29T05:46:27;780.20;;;695.85;;
18689;SDS011;9782;52.930;15.562;2022-07-29T05:48:54;792.33;;;707.58;;
18689;SDS011;9782;52.930;15.562;2022-07-29T05:51:23;791.40;;;706.40;;
18689;SDS011;9782;52.930;15.562;2022-07-29T05:53:50;799.42;;;714.40;;
18689;SDS011;9782;52.930;15.562;2022-07-29T05:56:17;800.05;;;715.35;;
18689;SDS011;9782;52.930;15.562;2022-07-29T05:58:49;814.65;;;729.33;;
18689;SDS011;9782;52.930;15.562;2022-07-29T06:01:35;802.95;;;717.88;;
18689;SDS011;9782;52.930;15.562;2022-07-29T06:04:35;802.38;;;717.42;;
18689;SDS011;9782;52.930;15.562;2022-07-29T06:11:24;788.75;;;703.83;;
18689;SDS011;9782;52.930;15.562;2022-07-29T06:13:57;775.53;;;691.05;;
18689;SDS011;9782;52.930;15.562;2022-07-29T06:20:33;757.85;;;673.80;;
18689;SDS011;9782;52.930;15.562;2022-07-29T06:23:48;738.27;;;635.47;;
18689;SDS011;9782;52.930;15.562;2022-07-29T06:27:10;735.10;;;622.93;;
18689;SDS011;9782;52.930;15.562;2022-07-29T06:33:16;725.97;;;596.73;;
18689;SDS011;9782;52.930;15.562;2022-07-29T06:35:44;737.10;;;605.53;;
18689;SDS011;9782;52.930;15.562;2022-07-29T06:38:12;734.37;;;612.90;;
18689;SDS011;9782;52.930;15.562;2022-07-29T06:40:42;723.47;;;598.33;;
18689;SDS011;9782;52.930;15.562;2022-07-29T06:43:28;700.60;;;550.63;;
18689;SDS011;9782;52.930;15.562;2022-07-29T06:45:59;718.67;;;573.30;;
18689;SDS011;9782;52.930;15.562;2022-07-29T06:48:27;696.50;;;527.50;;
18689;SDS011;9782;52.930;15.562;2022-07-29T06:50:55;706.43;;;551.07;;
18689;SDS011;9782;52.930;15.562;2022-07-29T06:53:22;720.00;;;600.57;;
18689;SDS011;9782;52.930;15.562;2022-07-29T06:55:51;721.57;;;589.27;;
18689;SDS011;9782;52.930;15.562;2022-07-29T06:58:18;707.57;;;558.67;;
18689;SDS011;9782;52.930;15.562;2022-07-29T07:00:45;699.47;;;536.13;;
18689;SDS011;9782;52.930;15.562;2022-07-29T07:03:13;716.80;;;567.80;;
18689;SDS011;9782;52.930;15.562;2022-07-29T07:05:40;712.43;;;571.53;;
18689;SDS011;9782;52.930;15.562;2022-07-29T07:08:07;712.03;;;569.10;;
18689;SDS011;9782;52.930;15.562;2022-07-29T07:10:34;706.90;;;565.77;;
18689;SDS011;9782;52.930;15.562;2022-07-29T07:13:03;706.20;;;560.90;;
18689;SDS011;9782;52.930;15.562;2022-07-29T07:15:31;736.43;;;614.90;;
18689;SDS011;9782;52.930;15.562;2022-07-29T07:17:58;740.87;;;636.03;;
18689;SDS011;9782;52.930;15.562;2022-07-29T07:20:26;737.10;;;635.53;;
18689;SDS011;9782;52.930;15.562;2022-07-29T07:22:53;739.93;;;646.30;;
18689;SDS011;9782;52.930;15.562;2022-07-29T07:25:20;739.47;;;629.60;;
18689;SDS011;9782;52.930;15.562;2022-07-29T07:27:48;734.30;;;639.90;;
18689;SDS011;9782;52.930;15.562;2022-07-29T07:30:16;742.53;;;658.03;;
18689;SDS011;9782;52.930;15.562;2022-07-29T07:32:43;725.77;;;612.90;;
18689;SDS011;9782;52.930;15.562;2022-07-29T07:35:10;760.70;;;677.40;;
18689;SDS011;9782;52.930;15.562;2022-07-29T07:37:38;736.77;;;642.67;;
18689;SDS011;9782;52.930;15.562;2022-07-29T07:40:07;739.13;;;643.30;;
18689;SDS011;9782;52.930;15.562;2022-07-29T07:42:36;745.90;;;649.80;;
18689;SDS011;9782;52.930;15.562;2022-07-29T07:45:04;743.07;;;654.10;;
18689;SDS011;9782;52.930;15.562;2022-07-29T07:47:33;747.43;;;647.53;;
18689;SDS011;9782;52.930;15.562;2022-07-29T07:50:00;740.87;;;633.30;;
18689;SDS011;9782;52.930;15.562;2022-07-29T07:52:28;747.90;;;643.30;;
18689;SDS011;9782;52.930;15.562;2022-07-29T07:54:55;740.20;;;633.30;;
18689;SDS011;9782;52.930;15.562;2022-07-29T07:57:22;748.63;;;664.57;;
18689;SDS011;9782;52.930;15.562;2022-07-29T07:59:49;748.93;;;664.00;;
18689;SDS011;9782;52.930;15.562;2022-07-29T08:02:17;748.50;;;662.07;;
18689;SDS011;9782;52.930;15.562;2022-07-29T08:04:46;744.77;;;647.60;;
18689;SDS011;9782;52.930;15.562;2022-07-29T08:07:13;759.77;;;646.63;;
18689;SDS011;9782;52.930;15.562;2022-07-29T08:09:40;758.23;;;662.47;;
18689;SDS011;9782;52.930;15.562;2022-07-29T08:12:07;757.53;;;638.57;;
18689;SDS011;9782;52.930;15.562;2022-07-29T08:14:34;770.97;;;647.63;;
18689;SDS011;9782;52.930;15.562;2022-07-29T08:17:02;779.90;;;694.27;;
18689;SDS011;9782;52.930;15.562;2022-07-29T08:19:29;779.03;;;686.47;;
18689;SDS011;9782;52.930;15.562;2022-07-29T08:21:58;765.60;;;684.50;;
18689;SDS011;9782;52.930;15.562;2022-07-29T08:24:25;776.87;;;695.17;;
18689;SDS011;9782;52.930;15.562;2022-07-29T08:27:15;780.60;;;698.40;;
18689;SDS011;9782;52.930;15.562;2022-07-29T08:29:42;778.00;;;695.90;;
18689;SDS011;9782;52.930;15.562;2022-07-29T08:32:09;784.47;;;700.97;;
18689;SDS011;9782;52.930;15.562;2022-07-29T08:34:37;782.97;;;699.30;;
18689;SDS011;9782;52.930;15.562;2022-07-29T08:37:05;767.00;;;683.83;;
18689;SDS011;9782;52.930;15.562;2022-07-29T08:39:32;765.53;;;680.33;;
18689;SDS011;9782;52.930;15.562;2022-07-29T08:41:59;749.27;;;666.97;;
18689;SDS011;9782;52.930;15.562;2022-07-29T08:44:27;776.33;;;692.20;;
18689;SDS011;9782;52.930;15.562;2022-07-29T08:51:48;772.37;;;691.10;;
18689;SDS011;9782;52.930;15.562;2022-07-29T08:54:17;772.97;;;690.87;;
18689;SDS011;9782;52.930;15.562;2022-07-29T08:56:48;786.60;;;704.63;;
18689;SDS011;9782;52.930;15.562;2022-07-29T08:59:16;799.00;;;715.57;;
18689;SDS011;9782;52.930;15.562;2022-07-29T09:01:46;797.17;;;715.03;;
18689;SDS011;9782;52.930;15.562;2022-07-29T09:04:20;793.00;;;710.90;;
18689;SDS011;9782;52.930;15.562;2022-07-29T09:06:56;777.17;;;695.10;;
18689;SDS011;9782;52.930;15.562;2022-07-29T09:09:32;763.33;;;682.90;;
18689;SDS011;9782;52.930;15.562;2022-07-29T09:12:00;764.13;;;683.33;;
18689;SDS011;9782;52.930;15.562;2022-07-29T09:14:36;781.17;;;700.20;;
18689;SDS011;9782;52.930;15.562;2022-07-29T09:17:03;822.43;;;738.87;;
18689;SDS011;9782;52.930;15.562;2022-07-29T09:27:10;823.23;;;737.80;;
18689;SDS011;9782;52.930;15.562;2022-07-29T09:46:19;806.23;;;720.47;;
18689;SDS011;9782;52.930;15.562;2022-07-29T09:51:34;791.00;;;705.33;;
18689;SDS011;9782;52.930;15.562;2022-07-29T09:54:04;752.83;;;649.17;;
18689;SDS011;9782;52.930;15.562;2022-07-29T09:57:04;771.43;;;678.80;;
18689;SDS011;9782;52.930;15.562;2022-07-29T09:59:57;757.07;;;665.07;;
18689;SDS011;9782;52.930;15.562;2022-07-29T10:02:32;749.20;;;661.77;;
18689;SDS011;9782;52.930;15.562;2022-07-29T10:05:08;835.57;;;749.40;;
18689;SDS011;9782;52.930;15.562;2022-07-29T10:07:45;839.23;;;753.73;;
18689;SDS011;9782;52.930;15.562;2022-07-29T10:10:18;836.53;;;751.40;;
18689;SDS011;9782;52.930;15.562;2022-07-29T10:12:54;814.87;;;730.53;;
18689;SDS011;9782;52.930;15.562;2022-07-29T10:15:25;825.43;;;740.90;;
18689;SDS011;9782;52.930;15.562;2022-07-29T10:17:57;800.97;;;716.27;;
18689;SDS011;9782;52.930;15.562;2022-07-29T10:20:26;811.23;;;727.57;;
18689;SDS011;9782;52.930;15.562;2022-07-29T10:22:54;808.00;;;724.30;;
18689;SDS011;9782;52.930;15.562;2022-07-29T10:25:21;806.53;;;722.63;;
18689;SDS011;9782;52.930;15.562;2022-07-29T10:27:50;797.57;;;714.30;;
18689;SDS011;9782;52.930;15.562;2022-07-29T10:30:18;806.73;;;723.20;;
18689;SDS011;9782;52.930;15.562;2022-07-29T10:33:05;805.97;;;721.73;;
18689;SDS011;9782;52.930;15.562;2022-07-29T10:35:54;803.90;;;720.33;;
18689;SDS011;9782;52.930;15.562;2022-07-29T10:38:43;805.67;;;720.80;;
18689;SDS011;9782;52.930;15.562;2022-07-29T10:41:23;811.63;;;727.07;;
18689;SDS011;9782;52.930;15.562;2022-07-29T10:44:04;790.07;;;705.93;;
18689;SDS011;9782;52.930;15.562;2022-07-29T10:46:34;798.07;;;714.03;;
18689;SDS011;9782;52.930;15.562;2022-07-29T10:49:08;822.67;;;737.90;;
18689;SDS011;9782;52.930;15.562;2022-07-29T10:51:53;802.97;;;719.47;;
18689;SDS011;9782;52.930;15.562;2022-07-29T10:54:38;809.73;;;726.63;;
18689;SDS011;9782;52.930;15.562;2022-07-29T10:57:17;829.67;;;744.93;;
18689;SDS011;9782;52.930;15.562;2022-07-29T10:59:46;806.73;;;723.03;;
18689;SDS011;9782;52.930;15.562;2022-07-29T11:05:11;816.73;;;732.13;;
18689;SDS011;9782;52.930;15.562;2022-07-29T11:07:40;811.10;;;726.40;;
18689;SDS011;9782;52.930;15.562;2022-07-29T11:10:48;809.77;;;724.77;;
18689;SDS011;9782;52.930;15.562;2022-07-29T11:16:15;841.87;;;755.20;;
18689;SDS011;9782;52.930;15.562;2022-07-29T11:21:46;745.17;;;655.17;;
18689;SDS011;9782;52.930;15.562;2022-07-29T11:24:16;786.77;;;703.70;;
18689;SDS011;9782;52.930;15.562;2022-07-29T11:29:47;798.43;;;714.17;;
18689;SDS011;9782;52.930;15.562;2022-07-29T11:32:17;757.30;;;667.50;;
18689;SDS011;9782;52.930;15.562;2022-07-29T11:34:45;712.70;;;546.57;;
18689;SDS011;9782;52.930;15.562;2022-07-29T11:37:15;799.23;;;715.10;;
18689;SDS011;9782;52.930;15.562;2022-07-29T11:39:47;714.13;;;568.40;;
18689;SDS011;9782;52.930;15.562;2022-07-29T11:42:40;755.23;;;657.37;;
18689;SDS011;9782;52.930;15.562;2022-07-29T11:45:16;776.97;;;692.00;;
18689;SDS011;9782;52.930;15.562;2022-07-29T11:47:52;668.10;;;407.13;;
18689;SDS011;9782;52.930;15.562;2022-07-29T11:50:27;635.97;;;350.10;;
18689;SDS011;9782;52.930;15.562;2022-07-29T11:53:00;623.47;;;364.37;;
18689;SDS011;9782;52.930;15.562;2022-07-29T11:55:28;610.00;;;368.17;;
18689;SDS011;9782;52.930;15.562;2022-07-29T11:57:58;610.97;;;362.23;;
18689;SDS011;9782;52.930;15.562;2022-07-29T12:00:27;610.50;;;355.67;;
18689;SDS011;9782;52.930;15.562;2022-07-29T12:02:56;609.37;;;348.30;;
18689;SDS011;9782;52.930;15.562;2022-07-29T12:05:31;611.00;;;344.00;;
18689;SDS011;9782;52.930;15.562;2022-07-29T12:08:11;620.30;;;345.80;;
18689;SDS011;9782;52.930;15.562;2022-07-29T12:10:40;692.83;;;475.33;;
18689;SDS011;9782;52.930;15.562;2022-07-29T12:13:08;645.43;;;360.33;;
18689;SDS011;9782;52.930;15.562;2022-07-29T12:15:36;645.77;;;381.10;;
18689;SDS011;9782;52.930;15.562;2022-07-29T12:18:10;634.17;;;334.97;;
18689;SDS011;9782;52.930;15.562;2022-07-29T12:20:38;627.63;;;339.33;;
18689;SDS011;9782;52.930;15.562;2022-07-29T12:23:06;629.83;;;341.70;;
18689;SDS011;9782;52.930;15.562;2022-07-29T12:25:35;634.63;;;354.97;;
18689;SDS011;9782;52.930;15.562;2022-07-29T12:28:03;630.20;;;337.63;;
18689;SDS011;9782;52.930;15.562;2022-07-29T12:30:35;628.23;;;341.77;;
18689;SDS011;9782;52.930;15.562;2022-07-29T12:33:11;625.90;;;351.43;;
18689;SDS011;9782;52.930;15.562;2022-07-29T12:35:44;613.70;;;347.10;;
18689;SDS011;9782;52.930;15.562;2022-07-29T12:38:13;624.17;;;352.93;;
18689;SDS011;9782;52.930;15.562;2022-07-29T12:40:43;619.73;;;369.40;;
18689;SDS011;9782;52.930;15.562;2022-07-29T12:43:11;623.77;;;357.00;;
18689;SDS011;9782;52.930;15.562;2022-07-29T12:45:41;614.53;;;361.83;;
18689;SDS011;9782;52.930;15.562;2022-07-29T12:48:09;616.67;;;348.30;;
18689;SDS011;9782;52.930;15.562;2022-07-29T12:50:51;606.47;;;347.77;;
18689;SDS011;9782;52.930;15.562;2022-07-29T12:53:19;612.20;;;351.37;;
18689;SDS011;9782;52.930;15.562;2022-07-29T12:55:48;604.10;;;353.27;;
18689;SDS011;9782;52.930;15.562;2022-07-29T12:58:30;621.10;;;346.17;;
18689;SDS011;9782;52.930;15.562;2022-07-29T13:01:03;618.47;;;348.40;;
18689;SDS011;9782;52.930;15.562;2022-07-29T13:03:42;610.93;;;351.70;;
18689;SDS011;9782;52.930;15.562;2022-07-29T13:09:09;606.73;;;350.40;;
18689;SDS011;9782;52.930;15.562;2022-07-29T13:11:39;601.40;;;347.40;;
18689;SDS011;9782;52.930;15.562;2022-07-29T13:14:08;601.03;;;341.57;;
18689;SDS011;9782;52.930;15.562;2022-07-29T13:16:36;599.47;;;343.03;;
18689;SDS011;9782;52.930;15.562;2022-07-29T13:19:32;598.97;;;342.93;;
18689;SDS011;9782;52.930;15.562;2022-07-29T13:22:05;599.50;;;341.97;;
18689;SDS011;9782;52.930;15.562;2022-07-29T13:24:32;604.47;;;348.00;;
18689;SDS011;9782;52.930;15.562;2022-07-29T13:27:01;599.23;;;342.53;;
18689;SDS011;9782;52.930;15.562;2022-07-29T13:29:28;600.17;;;337.27;;
18689;SDS011;9782;52.930;15.562;2022-07-29T13:31:55;603.87;;;344.50;;
18689;SDS011;9782;52.930;15.562;2022-07-29T13:34:22;609.97;;;347.17;;
18689;SDS011;9782;52.930;15.562;2022-07-29T13:36:49;610.10;;;345.23;;
18689;SDS011;9782;52.930;15.562;2022-07-29T13:39:17;596.47;;;342.87;;
18689;SDS011;9782;52.930;15.562;2022-07-29T13:41:44;605.10;;;349.37;;
18689;SDS011;9782;52.930;15.562;2022-07-29T13:44:12;596.60;;;338.40;;
18689;SDS011;9782;52.930;15.562;2022-07-29T13:46:45;600.77;;;348.43;;
18689;SDS011;9782;52.930;15.562;2022-07-29T13:49:12;602.40;;;339.20;;
18689;SDS011;9782;52.930;15.562;2022-07-29T13:51:40;594.53;;;337.50;;
18689;SDS011;9782;52.930;15.562;2022-07-29T13:54:12;601.83;;;345.03;;
18689;SDS011;9782;52.930;15.562;2022-07-29T13:56:39;605.00;;;352.80;;
18689;SDS011;9782;52.930;15.562;2022-07-29T13:59:08;609.33;;;361.07;;
18689;SDS011;9782;52.930;15.562;2022-07-29T14:01:37;603.47;;;349.33;;
18689;SDS011;9782;52.930;15.562;2022-07-29T14:04:06;606.03;;;353.07;;
18689;SDS011;9782;52.930;15.562;2022-07-29T14:06:34;600.57;;;344.60;;
18689;SDS011;9782;52.930;15.562;2022-07-29T14:09:01;605.13;;;350.40;;
18689;SDS011;9782;52.930;15.562;2022-07-29T14:11:31;609.03;;;343.87;;
18689;SDS011;9782;52.930;15.562;2022-07-29T14:13:58;616.33;;;353.67;;
18689;SDS011;9782;52.930;15.562;2022-07-29T14:16:25;607.00;;;349.50;;
18689;SDS011;9782;52.930;15.562;2022-07-29T14:18:54;607.67;;;357.13;;
18689;SDS011;9782;52.930;15.562;2022-07-29T14:21:21;604.40;;;350.60;;
18689;SDS011;9782;52.930;15.562;2022-07-29T14:23:48;600.03;;;336.70;;
18689;SDS011;9782;52.930;15.562;2022-07-29T14:26:16;601.73;;;331.57;;
18689;SDS011;9782;52.930;15.562;2022-07-29T14:28:43;602.77;;;346.87;;
18689;SDS011;9782;52.930;15.562;2022-07-29T14:31:10;601.53;;;337.37;;
18689;SDS011;9782;52.930;15.562;2022-07-29T14:38:33;605.90;;;336.57;;
18689;SDS011;9782;52.930;15.562;2022-07-29T14:41:05;605.03;;;348.13;;
18689;SDS011;9782;52.930;15.562;2022-07-29T14:43:36;602.70;;;344.53;;
18689;SDS011;9782;52.930;15.562;2022-07-29T14:46:10;597.77;;;337.07;;
18689;SDS011;9782;52.930;15.562;2022-07-29T14:48:48;598.63;;;344.30;;
18689;SDS011;9782;52.930;15.562;2022-07-29T14:51:25;597.43;;;335.63;;
18689;SDS011;9782;52.930;15.562;2022-07-29T14:53:52;603.17;;;347.37;;
18689;SDS011;9782;52.930;15.562;2022-07-29T14:56:21;601.77;;;339.53;;
18689;SDS011;9782;52.930;15.562;2022-07-29T14:58:48;598.13;;;335.50;;
18689;SDS011;9782;52.930;15.562;2022-07-29T15:01:15;600.17;;;327.47;;
18689;SDS011;9782;52.930;15.562;2022-07-29T15:03:42;602.93;;;341.53;;
18689;SDS011;9782;52.930;15.562;2022-07-29T15:06:09;602.57;;;332.17;;
18689;SDS011;9782;52.930;15.562;2022-07-29T15:08:38;603.53;;;329.97;;
18689;SDS011;9782;52.930;15.562;2022-07-29T15:11:05;598.97;;;321.53;;
18689;SDS011;9782;52.930;15.562;2022-07-29T15:13:33;597.77;;;324.60;;
18689;SDS011;9782;52.930;15.562;2022-07-29T15:16:00;604.43;;;335.07;;
18689;SDS011;9782;52.930;15.562;2022-07-29T15:18:27;611.03;;;340.67;;
18689;SDS011;9782;52.930;15.562;2022-07-29T15:20:55;606.00;;;337.00;;
18689;SDS011;9782;52.930;15.562;2022-07-29T15:23:22;619.13;;;347.67;;
18689;SDS011;9782;52.930;15.562;2022-07-29T15:25:50;622.80;;;341.03;;
18689;SDS011;9782;52.930;15.562;2022-07-29T15:28:17;612.77;;;333.63;;
18689;SDS011;9782;52.930;15.562;2022-07-29T15:33:12;627.07;;;347.90;;
18689;SDS011;9782;52.930;15.562;2022-07-29T15:35:39;632.10;;;343.20;;
18689;SDS011;9782;52.930;15.562;2022-07-29T15:38:06;630.97;;;336.70;;
18689;SDS011;9782;52.930;15.562;2022-07-29T15:40:34;624.17;;;326.67;;
18689;SDS011;9782;52.930;15.562;2022-07-29T15:43:04;23.13;;;20.87;;
18689;SDS011;9782;52.930;15.562;2022-07-29T15:45:34;23.83;;;21.50;;
18689;SDS011;9782;52.930;15.562;2022-07-29T15:48:04;25.77;;;23.47;;
18689;SDS011;9782;52.930;15.562;2022-07-29T15:50:38;26.30;;;23.80;;
18689;SDS011;9782;52.930;15.562;2022-07-29T15:53:14;25.83;;;23.37;;
18689;SDS011;9782;52.930;15.562;2022-07-29T15:55:47;25.13;;;22.73;;
18689;SDS011;9782;52.930;15.562;2022-07-29T15:58:32;25.83;;;23.43;;
18689;SDS011;9782;52.930;15.562;2022-07-29T16:01:16;25.17;;;22.93;;
18689;SDS011;9782;52.930;15.562;2022-07-29T16:03:46;27.37;;;24.97;;
18689;SDS011;9782;52.930;15.562;2022-07-29T16:06:13;25.53;;;23.27;;